Time;durP1;ratioP1;P1;durP2;ratioP2;P2;SDS_P1;SDS_P2;PMS_P1;PMS_P2;Temp;Humidity;BMP_temperature;BMP_pressure;BME280_temperature;BME280_humidity;BME280_pressure;Samples;Min_cycle;Max_cycle;Signal;HPM_P1;HPM_P2
2023/11/20 00:04:31;;;;;;;;;;;;;;;20.26;44.89;95503.78;10497015;28;2557;-52
2023/11/20 00:09:32;;;;;;;;;;;;;;;20.23;44.50;95506.97;10500296;28;2638;-53
2023/11/20 00:14:32;;;;;;;;;;;;;;;20.21;44.63;95503.84;10503077;28;4762;-55
2023/11/20 00:19:32;;;;;;;;;;;;;;;20.20;44.49;95513.56;10495679;28;2679;-52
2023/11/20 00:24:33;;;;;;;;;;;;;;;20.17;44.62;95521.22;10498839;28;2609;-52
2023/11/20 00:29:33;;;;;;;;;;;;;;;20.16;44.30;95509.91;10496420;28;2613;-51
2023/11/20 00:34:35;;;;;;;;;;;;;;;20.14;44.69;95503.31;10492801;28;2624;-53
2023/11/20 00:39:35;;;;;;;;;;;;;;;20.13;44.67;95492.00;10484983;28;2701;-56
2023/11/20 00:44:36;;;;;;;;;;;;;;;20.12;44.75;95513.34;10490532;28;2613;-55
2023/11/20 00:49:37;;;;;;;;;;;;;;;20.08;44.65;95507.84;10489060;28;2717;-53
2023/11/20 00:54:37;;;;;;;;;;;;;;;20.07;44.94;95508.13;10488339;28;2597;-53
2023/11/20 00:59:38;;;;;;;;;;;;;;;20.06;44.64;95517.88;10493541;28;2668;-54
2023/11/20 01:04:38;;;;;;;;;;;;;;;20.05;44.52;95515.53;10492316;28;2617;-53
2023/11/20 01:09:39;;;;;;;;;;;;;;;20.02;44.34;95498.44;10491212;28;2635;-54
2023/11/20 01:14:42;;;;;;;;;;;;;;;20.02;44.59;95495.81;10493730;28;4690;-52
2023/11/20 01:19:43;;;;;;;;;;;;;;;20.00;44.44;95507.66;10502281;28;2618;-53
2023/11/20 01:24:44;;;;;;;;;;;;;;;19.99;44.46;95514.00;10491349;27;2644;-53
2023/11/20 01:29:44;;;;;;;;;;;;;;;19.98;44.23;95515.84;10490893;28;2687;-55
2023/11/20 01:34:44;;;;;;;;;;;;;;;19.95;44.59;95516.38;10487727;28;2712;-54
2023/11/20 01:39:44;;;;;;;;;;;;;;;19.95;44.48;95515.56;10490210;28;2690;-56
2023/11/20 01:44:45;;;;;;;;;;;;;;;19.93;44.56;95500.06;10489374;28;2740;-52
2023/11/20 01:49:45;;;;;;;;;;;;;;;19.91;44.79;95493.50;10486989;28;2649;-55
2023/11/20 01:54:45;;;;;;;;;;;;;;;19.91;44.33;95488.25;10502911;28;2597;-53
2023/11/20 01:59:45;;;;;;;;;;;;;;;19.89;44.45;95488.53;10488902;28;2550;-50
2023/11/20 02:04:46;;;;;;;;;;;;;;;19.88;44.84;95488.81;10483748;28;2566;-53
2023/11/20 02:09:46;;;;;;;;;;;;;;;19.86;44.27;95486.47;10492045;28;2574;-54
2023/11/20 02:14:46;;;;;;;;;;;;;;;19.84;44.70;95487.78;10492518;28;4648;-54
2023/11/20 02:19:50;;;;;;;;;;;;;;;19.85;44.80;95494.63;10493142;28;2554;-53
2023/11/20 02:24:50;;;;;;;;;;;;;;;19.82;44.55;95485.44;10494429;28;2717;-54
2023/11/20 02:29:54;;;;;;;;;;;;;;;19.81;44.27;95473.34;10491865;28;2683;-53
2023/11/20 02:34:54;;;;;;;;;;;;;;;19.80;44.56;95478.88;10498300;28;2558;-52
2023/11/20 02:39:54;;;;;;;;;;;;;;;19.81;44.08;95483.06;10491845;28;2680;-51
2023/11/20 02:44:54;;;;;;;;;;;;;;;19.79;44.37;95479.94;10492341;28;2717;-53
2023/11/20 02:49:55;;;;;;;;;;;;;;;19.77;44.08;95482.84;10488101;28;2602;-56
2023/11/20 02:54:55;;;;;;;;;;;;;;;19.76;44.38;95483.13;10494734;28;2611;-51
2023/11/20 02:59:58;;;;;;;;;;;;;;;19.76;43.96;95472.59;10496088;28;2584;-53
2023/11/20 03:04:58;;;;;;;;;;;;;;;19.73;44.15;95454.72;10493534;28;2594;-52
2023/11/20 03:09:58;;;;;;;;;;;;;;;19.73;44.20;95457.38;10490697;28;2691;-52
2023/11/20 03:14:59;;;;;;;;;;;;;;;19.73;44.11;95454.72;10500235;28;4699;-55
2023/11/20 03:19:59;;;;;;;;;;;;;;;19.71;44.48;95459.47;10493199;28;2613;-55
2023/11/20 03:25:00;;;;;;;;;;;;;;;19.69;44.02;95444.00;10496902;28;2561;-53
2023/11/20 03:30:00;;;;;;;;;;;;;;;19.68;44.04;95442.41;10496356;28;2630;-53
2023/11/20 03:35:00;;;;;;;;;;;;;;;19.67;44.28;95442.69;10492929;28;2926;-53
2023/11/20 03:40:01;;;;;;;;;;;;;;;19.67;44.07;95442.69;10492558;28;2628;-55
2023/11/20 03:45:01;;;;;;;;;;;;;;;19.66;43.92;95441.13;10500356;28;2677;-55
2023/11/20 03:50:02;;;;;;;;;;;;;;;19.65;44.12;95447.44;10498087;28;2628;-53
2023/11/20 03:55:02;;;;;;;;;;;;;;;19.64;44.25;95445.88;10493996;28;2701;-53
2023/11/20 04:00:04;;;;;;;;;;;;;;;19.63;44.13;95446.91;10497087;28;2534;-55
2023/11/20 04:05:04;;;;;;;;;;;;;;;19.62;43.99;95440.09;10486027;28;2985;-54
2023/11/20 04:10:07;;;;;;;;;;;;;;;19.59;43.93;95438.81;10498720;28;2924;-50
2023/11/20 04:15:08;;;;;;;;;;;;;;;19.59;43.89;95443.28;10491863;28;4804;-49
2023/11/20 04:20:09;;;;;;;;;;;;;;;19.58;43.99;95431.19;10493264;28;2566;-50
2023/11/20 04:25:09;;;;;;;;;;;;;;;19.57;43.76;95429.63;10495286;28;2558;-53
2023/11/20 04:30:09;;;;;;;;;;;;;;;19.56;43.87;95431.44;10499110;28;2610;-53
2023/11/20 04:35:09;;;;;;;;;;;;;;;19.54;43.95;95420.44;10490948;28;2551;-55
2023/11/20 04:40:10;;;;;;;;;;;;;;;19.54;43.77;95419.66;10496138;28;2624;-54
2023/11/20 04:45:12;;;;;;;;;;;;;;;19.53;43.96;95428.59;10492172;28;2594;-50
2023/11/20 04:50:12;;;;;;;;;;;;;;;19.51;43.80;95397.34;10493562;28;2602;-54
2023/11/20 04:55:12;;;;;;;;;;;;;;;19.51;43.72;95383.41;10489559;28;2619;-52
2023/11/20 05:00:13;;;;;;;;;;;;;;;19.48;43.62;95375.00;10487364;28;2601;-52
2023/11/20 05:05:14;;;;;;;;;;;;;;;19.48;43.46;95385.50;10490326;28;2718;-52
2023/11/20 05:10:14;;;;;;;;;;;;;;;19.50;44.11;95382.59;10489853;28;2668;-51
2023/11/20 05:15:14;;;;;;;;;;;;;;;19.52;44.30;95383.13;10488229;28;4890;-55
2023/11/20 05:20:14;;;;;;;;;;;;;;;19.61;44.41;95383.31;10492769;28;2629;-52
2023/11/20 05:25:15;;;;;;;;;;;;;;;19.68;44.29;95389.81;10495011;28;2692;-56
2023/11/20 05:30:15;;;;;;;;;;;;;;;19.74;44.40;95387.94;10490791;28;2595;-54
2023/11/20 05:35:15;;;;;;;;;;;;;;;19.83;44.29;95402.03;10489689;28;2559;-54
2023/11/20 05:40:17;;;;;;;;;;;;;;;19.88;44.16;95407.28;10493619;28;2945;-52
2023/11/20 05:45:18;;;;;;;;;;;;;;;19.94;44.04;95398.28;10473317;28;2714;-55
2023/11/20 05:50:18;;;;;;;;;;;;;;;20.00;43.99;95407.69;10486157;28;2582;-54
2023/11/20 05:55:18;;;;;;;;;;;;;;;20.06;43.84;95409.19;10493356;28;2610;-56
2023/11/20 06:00:19;;;;;;;;;;;;;;;20.09;43.91;95406.78;10496848;28;2741;-53
2023/11/20 06:05:19;;;;;;;;;;;;;;;20.13;43.88;95417.56;10499257;28;2682;-53
2023/11/20 06:10:19;;;;;;;;;;;;;;;20.16;43.97;95423.06;10496058;28;2634;-52
2023/11/20 06:15:19;;;;;;;;;;;;;;;20.15;43.67;95421.47;10502418;28;4823;-55
2023/11/20 06:20:20;;;;;;;;;;;;;;;20.13;43.88;95423.59;10497620;28;2728;-55
2023/11/20 06:25:20;;;;;;;;;;;;;;;20.18;43.96;95420.13;10496267;28;2607;-54
2023/11/20 06:30:20;;;;;;;;;;;;;;;20.22;44.24;95435.13;10500969;28;3595;-52
2023/11/20 06:35:21;;;;;;;;;;;;;;;20.28;44.20;95438.47;10496245;28;2603;-54
2023/11/20 06:40:21;;;;;;;;;;;;;;;20.31;44.50;95447.66;10499329;28;2727;-52
2023/11/20 06:45:21;;;;;;;;;;;;;;;20.32;44.38;95449.25;10497223;28;2767;-54
2023/11/20 06:50:22;;;;;;;;;;;;;;;20.37;43.95;95446.56;10494465;28;2747;-53
2023/11/20 06:55:22;;;;;;;;;;;;;;;20.36;44.38;95452.91;10490480;28;2523;-53
2023/11/20 07:00:22;;;;;;;;;;;;;;;20.40;44.84;95449.44;10498988;27;2660;-53
2023/11/20 07:05:23;;;;;;;;;;;;;;;20.40;44.66;95453.91;10490750;28;2573;-55
2023/11/20 07:10:23;;;;;;;;;;;;;;;20.42;44.49;95463.09;10498308;28;2573;-54
2023/11/20 07:15:24;;;;;;;;;;;;;;;20.45;45.06;95473.06;10528920;27;4715;-52
2023/11/20 07:20:24;;;;;;;;;;;;;;;20.47;44.95;95473.56;10493285;28;2547;-55
2023/11/20 07:25:25;;;;;;;;;;;;;;;20.48;44.84;95479.63;10494629;28;2650;-54
2023/11/20 07:30:25;;;;;;;;;;;;;;;20.49;44.87;95476.72;10492044;28;2646;-54
2023/11/20 07:35:26;;;;;;;;;;;;;;;20.50;44.79;95490.66;10492124;28;2693;-52
2023/11/20 07:40:26;;;;;;;;;;;;;;;20.52;44.78;95489.31;10499246;28;2634;-52
2023/11/20 07:45:27;;;;;;;;;;;;;;;20.52;45.01;95491.16;10493634;28;2676;-55
2023/11/20 07:50:27;;;;;;;;;;;;;;;20.53;44.80;95484.81;10489979;28;2698;-54
2023/11/20 07:55:27;;;;;;;;;;;;;;;20.53;44.71;95490.88;10493874;28;2679;-54
2023/11/20 08:00:27;;;;;;;;;;;;;;;20.54;44.84;95492.47;10496389;28;2670;-55
2023/11/20 08:05:28;;;;;;;;;;;;;;;20.55;44.79;95488.75;10491712;28;2597;-52
2023/11/20 08:10:28;;;;;;;;;;;;;;;20.56;44.52;95461.38;10496978;28;2622;-55
2023/11/20 08:15:28;;;;;;;;;;;;;;;20.57;44.46;95462.13;10494005;28;4530;-52
2023/11/20 08:20:29;;;;;;;;;;;;;;;20.57;44.76;95459.50;10492005;28;2643;-52
2023/11/20 08:25:29;;;;;;;;;;;;;;;20.57;44.48;95457.66;10489917;28;2683;-53
2023/11/20 08:30:32;;;;;;;;;;;;;;;20.56;44.54;95453.47;10490059;28;2576;-52
2023/11/20 08:35:33;;;;;;;;;;;;;;;20.56;44.68;95464.00;10494087;28;2656;-53
2023/11/20 08:40:33;;;;;;;;;;;;;;;20.56;44.92;95453.47;10493683;28;2685;-55
2023/11/20 08:45:34;;;;;;;;;;;;;;;20.55;44.64;95456.38;10487986;28;2715;-52
2023/11/20 08:50:34;;;;;;;;;;;;;;;20.53;44.81;95458.50;10486766;28;2546;-55
2023/11/20 08:55:35;;;;;;;;;;;;;;;20.52;44.88;95447.19;10488152;28;2678;-54
2023/11/20 09:00:35;;;;;;;;;;;;;;;20.53;44.69;95445.31;10524483;27;2718;-52
2023/11/20 09:05:35;;;;;;;;;;;;;;;20.50;45.07;95441.44;10489102;28;2655;-53
2023/11/20 09:10:35;;;;;;;;;;;;;;;20.52;44.81;95451.66;10491020;28;2617;-54
2023/11/20 09:15:36;;;;;;;;;;;;;;;20.52;45.10;95441.94;10494272;28;4757;-54
2023/11/20 09:20:36;;;;;;;;;;;;;;;20.50;44.82;95451.97;10480015;28;2623;-52
2023/11/20 09:25:36;;;;;;;;;;;;;;;20.49;44.68;95450.38;10493644;28;2563;-51
2023/11/20 09:30:37;;;;;;;;;;;;;;;20.47;44.88;95452.50;10504946;28;2665;-51
2023/11/20 09:35:37;;;;;;;;;;;;;;;20.47;44.81;95443.81;10494940;28;2652;-53
2023/11/20 09:40:38;;;;;;;;;;;;;;;20.44;45.05;95439.91;10497886;28;2686;-52
2023/11/20 09:45:39;;;;;;;;;;;;;;;20.39;45.10;95432.06;10501470;28;2712;-52
2023/11/20 09:50:39;;;;;;;;;;;;;;;20.40;44.41;95425.75;10496419;28;2634;-53
2023/11/20 09:55:42;;;;;;;;;;;;;;;20.38;44.89;95419.94;10497972;28;2585;-53
2023/11/20 10:00:42;;;;;;;;;;;;;;;20.38;44.33;95430.47;10503709;28;2669;-53
2023/11/20 10:05:44;;;;;;;;;;;;;;;20.37;44.51;95413.13;10496574;28;2653;-53
2023/11/20 10:10:47;;;;;;;;;;;;;;;20.36;44.54;95422.06;10499241;28;2768;-55
2023/11/20 10:15:48;;;;;;;;;;;;;;;20.36;44.42;95418.69;10497355;28;4616;-51
2023/11/20 10:20:48;;;;;;;;;;;;;;;20.33;44.45;95406.06;10499856;28;2653;-52
2023/11/20 10:25:50;;;;;;;;;;;;;;;20.29;44.42;95411.09;10498411;28;2595;-52
2023/11/20 10:30:50;;;;;;;;;;;;;;;20.26;44.27;95406.38;10498055;28;2567;-54
2023/11/20 10:35:53;;;;;;;;;;;;;;;20.22;44.79;95405.38;10494185;28;2641;-56
2023/11/20 10:40:57;;;;;;;;;;;;;;;20.19;44.36;95387.50;10495907;28;2585;-53
2023/11/20 10:45:58;;;;;;;;;;;;;;;20.19;44.24;95393.59;10498688;28;2680;-50
2023/11/20 10:50:58;;;;;;;;;;;;;;;20.17;44.69;95387.00;10494610;28;2577;-54
2023/11/20 10:55:59;;;;;;;;;;;;;;;20.15;44.30;95387.25;10500994;28;2579;-56
2023/11/20 11:01:00;;;;;;;;;;;;;;;20.16;44.45;95377.53;10498782;28;2687;-54
2023/11/20 11:06:03;;;;;;;;;;;;;;;20.14;44.36;95372.53;10492306;28;2780;-55
2023/11/20 11:11:03;;;;;;;;;;;;;;;20.13;44.49;95360.44;10493110;28;2559;-53
2023/11/20 11:16:05;;;;;;;;;;;;;;;20.10;44.44;95349.69;10493657;28;4667;-52
2023/11/20 11:21:08;;;;;;;;;;;;;;;20.07;44.42;95345.00;10499405;28;2651;-54
2023/11/20 11:26:21;;;;;;;;;;;;;;;20.08;44.64;95343.94;10493099;28;2672;-51
2023/11/20 11:31:22;;;;;;;;;;;;;;;20.06;44.74;95343.44;10494998;28;2574;-53
2023/11/20 11:36:22;;;;;;;;;;;;;;;20.05;44.78;95336.63;10489897;28;2760;-53
2023/11/20 11:41:41;;;;;;;;;;;;;;;20.04;44.53;95335.81;10498156;28;2637;-53
2023/11/20 11:46:48;;;;;;;;;;;;;;;20.03;44.57;95323.72;10495927;28;2612;-51
2023/11/20 11:51:52;;;;;;;;;;;;;;;20.02;44.83;95308.22;10493315;28;2906;-53
2023/11/20 11:57:00;;;;;;;;;;;;;;;20.00;44.82;95305.88;10492626;28;2553;-51
2023/11/20 12:02:00;;;;;;;;;;;;;;;19.99;44.84;95298.28;10504480;28;2674;-53
2023/11/20 12:07:06;;;;;;;;;;;;;;;19.97;44.67;95276.72;10493390;28;2590;-52
2023/11/20 12:12:06;;;;;;;;;;;;;;;19.96;44.78;95281.19;10492212;28;4717;-56
2023/11/20 12:17:08;;;;;;;;;;;;;;;19.94;45.02;95279.91;10494819;28;2662;-54
2023/11/20 12:22:08;;;;;;;;;;;;;;;19.94;44.95;95274.63;10493401;28;2646;-55
2023/11/20 12:27:08;;;;;;;;;;;;;;;19.96;44.96;95264.63;10490592;28;2659;-55
2023/11/20 12:32:09;;;;;;;;;;;;;;;19.97;45.01;95258.31;10491887;28;2612;-54
2023/11/20 12:37:10;;;;;;;;;;;;;;;19.96;45.08;95254.09;10491492;28;2676;-56
2023/11/20 12:42:10;;;;;;;;;;;;;;;19.94;44.77;95266.75;10493562;28;2623;-51
2023/11/20 12:47:10;;;;;;;;;;;;;;;19.93;44.87;95259.91;10492041;28;2590;-51
2023/11/20 12:52:11;;;;;;;;;;;;;;;19.91;44.80;95254.94;10493948;28;2565;-53
2023/11/20 12:57:11;;;;;;;;;;;;;;;19.90;44.96;95248.13;10493503;28;2610;-52
2023/11/20 13:02:11;;;;;;;;;;;;;;;19.88;44.55;95242.34;10493637;28;2584;-54
2023/11/20 13:07:13;;;;;;;;;;;;;;;19.86;44.83;95233.97;10491770;28;2922;-53
2023/11/20 13:12:13;;;;;;;;;;;;;;;19.84;44.72;95238.72;10497624;28;2601;-55
2023/11/20 13:17:16;;;;;;;;;;;;;;;19.82;44.78;95248.75;10490208;28;2622;-55
2023/11/20 13:22:16;;;;;;;;;;;;;;;19.81;44.81;95235.84;10489412;27;2660;-53
2023/11/20 13:27:16;;;;;;;;;;;;;;;19.80;44.74;95234.28;10492830;28;2614;-54
2023/11/20 13:32:17;;;;;;;;;;;;;;;19.78;44.81;95249.56;10493073;28;2665;-54
2023/11/20 13:37:17;;;;;;;;;;;;;;;19.76;44.69;95239.34;10493596;28;2603;-52
2023/11/20 13:42:18;;;;;;;;;;;;;;;19.76;44.81;95233.28;10490876;28;2700;-52
2023/11/20 13:47:18;;;;;;;;;;;;;;;19.73;44.68;95247.78;10487950;28;2575;-53
2023/11/20 13:52:18;;;;;;;;;;;;;;;19.72;44.65;95238.31;10494557;28;2622;-53
2023/11/20 13:57:18;;;;;;;;;;;;;;;19.73;44.73;95239.09;10489120;28;2594;-53
2023/11/20 14:02:19;;;;;;;;;;;;;;;19.71;44.67;95231.50;10490494;28;2611;-54
2023/11/20 14:07:19;;;;;;;;;;;;;;;19.69;44.45;95222.31;10491599;28;2582;-54
2023/11/20 14:12:19;;;;;;;;;;;;;;;19.69;44.58;95222.31;10490988;28;4676;-53
2023/11/20 14:17:20;;;;;;;;;;;;;;;19.67;44.40;95219.19;10497395;28;2603;-53
2023/11/20 14:22:20;;;;;;;;;;;;;;;19.66;44.28;95220.25;10497229;28;2785;-53
2023/11/20 14:27:20;;;;;;;;;;;;;;;19.65;44.49;95224.72;10497776;28;2695;-52
2023/11/20 14:32:20;;;;;;;;;;;;;;;19.63;44.42;95224.22;10499544;28;2597;-53
2023/11/20 14:37:22;;;;;;;;;;;;;;;19.62;44.68;95227.91;10494362;28;2546;-53
2023/11/20 14:42:25;;;;;;;;;;;;;;;19.64;44.59;95227.66;10495780;28;2970;-52
2023/11/20 14:47:25;;;;;;;;;;;;;;;19.70;44.36;95221.25;10495454;28;2750;-54
2023/11/20 14:52:25;;;;;;;;;;;;;;;19.76;44.60;95230.66;10497310;28;2609;-52
2023/11/20 14:57:25;;;;;;;;;;;;;;;19.81;44.59;95231.38;10497833;28;2625;-53
2023/11/20 15:02:26;;;;;;;;;;;;;;;19.86;44.41;95230.53;10498267;28;2701;-54
2023/11/20 15:07:26;;;;;;;;;;;;;;;19.90;44.18;95232.34;10496738;28;3046;-53
2023/11/20 15:12:26;;;;;;;;;;;;;;;19.94;44.39;95225.44;10496603;28;4633;-53
2023/11/20 15:17:27;;;;;;;;;;;;;;;19.97;44.32;95218.84;10496817;28;2597;-53
2023/11/20 15:22:27;;;;;;;;;;;;;;;20.03;44.04;95217.72;10500698;28;2631;-54
2023/11/20 15:27:27;;;;;;;;;;;;;;;20.06;43.71;95211.88;10498203;28;2646;-55
2023/11/20 15:32:27;;;;;;;;;;;;;;;20.08;43.85;95204.47;10499373;28;2579;-51
2023/11/20 15:37:29;;;;;;;;;;;;;;;20.11;43.72;95199.44;10493222;28;2637;-55
2023/11/20 15:42:29;;;;;;;;;;;;;;;20.13;43.76;95210.44;10492910;28;2607;-52
2023/11/20 15:47:29;;;;;;;;;;;;;;;20.16;43.68;95198.59;10494628;28;2589;-54
2023/11/20 15:52:29;;;;;;;;;;;;;;;20.16;43.68;95196.75;10488708;28;2598;-51
2023/11/20 15:57:30;;;;;;;;;;;;;;;20.20;43.67;95207.50;10496342;28;2658;-55
2023/11/20 16:02:30;;;;;;;;;;;;;;;20.23;43.50;95201.69;10496956;28;2557;-53
2023/11/20 16:07:31;;;;;;;;;;;;;;;20.27;43.43;95210.56;10494652;28;2606;-52
2023/11/20 16:12:31;;;;;;;;;;;;;;;20.30;43.16;95206.59;10493847;28;4722;-56
2023/11/20 16:17:31;;;;;;;;;;;;;;;20.31;43.39;95208.16;10500484;28;2603;-52
2023/11/20 16:22:32;;;;;;;;;;;;;;;20.35;43.24;95214.41;10492504;28;2663;-53
2023/11/20 16:27:32;;;;;;;;;;;;;;;20.35;43.52;95203.88;10498962;28;2568;-53
2023/11/20 16:32:32;;;;;;;;;;;;;;;20.37;43.28;95207.81;10494154;28;2622;-51
2023/11/20 16:37:33;;;;;;;;;;;;;;;20.38;43.19;95206.72;10491654;28;2646;-52
2023/11/20 16:42:33;;;;;;;;;;;;;;;20.41;43.15;95203.53;10496132;28;2641;-52
2023/11/20 16:47:33;;;;;;;;;;;;;;;20.44;43.11;95196.91;10492945;28;2663;-54
2023/11/20 16:52:33;;;;;;;;;;;;;;;20.46;43.15;95200.84;10491572;28;2584;-54
2023/11/20 16:57:34;;;;;;;;;;;;;;;20.49;42.85;95200.25;10498543;28;2714;-54
2023/11/20 17:02:34;;;;;;;;;;;;;;;20.52;42.92;95198.91;10494365;28;2651;-55
2023/11/20 17:07:34;;;;;;;;;;;;;;;20.52;43.07;95198.91;10497610;28;2559;-54
2023/11/20 17:12:36;;;;;;;;;;;;;;;20.71;42.72;95203.06;10503165;28;5105;-52
2023/11/20 17:17:36;;;;;;;;;;;;;;;20.81;42.31;95197.63;10530312;28;2031;-53
2023/11/20 17:22:36;;;;;;;;;;;;;;;20.94;41.72;95204.81;10507122;27;1478;-55
2023/11/20 17:27:37;;;;;;;;;;;;;;;21.04;41.51;95209.19;10507634;28;1957;-51
2023/11/20 17:32:37;;;;;;;;;;;;;;;21.13;41.53;95207.44;10513645;28;1946;-54
2023/11/20 17:37:38;;;;;;;;;;;;;;;21.26;41.25;95209.31;10506678;28;1636;-55
2023/11/20 17:42:38;;;;;;;;;;;;;;;21.31;40.93;95197.91;10519507;28;1401;-53
2023/11/20 17:47:38;;;;;;;;;;;;;;;21.40;40.77;95189.03;10508549;28;2638;-55
2023/11/20 17:52:38;;;;;;;;;;;;;;;21.47;40.49;95186.00;10502986;28;2593;-54
2023/11/20 17:57:39;;;;;;;;;;;;;;;21.51;40.17;95189.63;10506772;28;2539;-54
2023/11/20 18:02:39;;;;;;;;;;;;;;;21.53;40.28;95196.19;10504450;28;2582;-55
2023/11/20 18:07:39;;;;;;;;;;;;;;;21.60;40.02;95182.56;10505495;28;2635;-55
2023/11/20 18:12:40;;;;;;;;;;;;;;;21.64;40.00;95186.97;10494490;28;2571;-54
2023/11/20 18:17:41;;;;;;;;;;;;;;;21.66;40.11;95187.47;10496895;28;2575;-54
2023/11/20 18:22:44;;;;;;;;;;;;;;;21.71;39.77;95184.75;10499591;28;2592;-53
2023/11/20 18:27:44;;;;;;;;;;;;;;;21.72;39.62;95193.44;10501942;28;2599;-55
2023/11/20 18:32:44;;;;;;;;;;;;;;;21.74;39.21;95183.38;10498432;28;2589;-54
2023/11/20 18:37:44;;;;;;;;;;;;;;;21.75;39.55;95184.94;10498500;28;2679;-54
2023/11/20 18:42:45;;;;;;;;;;;;;;;21.78;39.93;95181.72;10496936;28;2571;-55
2023/11/20 18:47:46;;;;;;;;;;;;;;;21.79;39.45;95176.13;10497580;28;2655;-54
2023/11/20 18:52:46;;;;;;;;;;;;;;;21.81;39.55;95174.00;10500343;28;2655;-54
2023/11/20 18:57:50;;;;;;;;;;;;;;;21.83;39.32;95171.88;10497892;28;2551;-53
2023/11/20 19:02:51;;;;;;;;;;;;;;;21.84;39.13;95183.22;10492205;28;2612;-56
2023/11/20 19:07:53;;;;;;;;;;;;;;;21.84;39.23;95172.66;10497423;28;2563;-54
2023/11/20 19:12:53;;;;;;;;;;;;;;;21.83;39.17;95179.00;10496192;28;4711;-50
2023/11/20 19:17:53;;;;;;;;;;;;;;;21.87;39.32;95174.69;10489389;28;2609;-53
2023/11/20 19:22:54;;;;;;;;;;;;;;;21.90;38.96;95174.09;10494952;28;2662;-55
2023/11/20 19:27:54;;;;;;;;;;;;;;;21.91;39.32;95178.28;10495651;28;2631;-53
2023/11/20 19:32:55;;;;;;;;;;;;;;;21.94;39.14;95177.72;10499229;28;2641;-53
2023/11/20 19:37:55;;;;;;;;;;;;;;;21.97;38.76;95182.38;10496010;28;2587;-54
2023/11/20 19:42:55;;;;;;;;;;;;;;;21.98;39.32;95178.69;10493979;28;2588;-54
2023/11/20 19:47:56;;;;;;;;;;;;;;;22.01;39.00;95182.59;10501480;28;2705;-52
2023/11/20 19:52:56;;;;;;;;;;;;;;;21.98;39.33;95181.31;10490120;28;2610;-51
2023/11/20 19:57:57;;;;;;;;;;;;;;;22.04;39.39;95185.41;10499436;28;2606;-52
2023/11/20 20:02:57;;;;;;;;;;;;;;;22.03;38.84;95181.22;10497417;28;2534;-55
2023/11/20 20:07:59;;;;;;;;;;;;;;;22.06;38.98;95179.84;10505426;28;3147;-54
2023/11/20 20:12:59;;;;;;;;;;;;;;;22.06;39.23;95180.63;10489966;28;4621;-53
2023/11/20 20:18:00;;;;;;;;;;;;;;;22.09;39.37;95180.03;10495771;28;2751;-51
2023/11/20 20:23:00;;;;;;;;;;;;;;;22.10;39.79;95178.97;10496071;28;2522;-54
2023/11/20 20:28:00;;;;;;;;;;;;;;;22.10;40.41;95176.31;10492420;28;2594;-50
2023/11/20 20:33:01;;;;;;;;;;;;;;;22.09;41.11;95182.66;10486454;28;2673;-54
2023/11/20 20:38:01;;;;;;;;;;;;;;;22.07;41.08;95181.41;10495851;28;2692;-54
2023/11/20 20:43:01;;;;;;;;;;;;;;;22.09;41.53;95181.91;10496400;28;2610;-53
2023/11/20 20:48:04;;;;;;;;;;;;;;;22.03;41.85;95180.44;10512905;27;2688;-52
2023/11/20 20:53:05;;;;;;;;;;;;;;;22.01;42.11;95172.03;10480548;28;2734;-51
2023/11/20 20:58:06;;;;;;;;;;;;;;;21.94;42.22;95171.66;10482632;28;2894;-53
2023/11/20 21:03:08;;;;;;;;;;;;;;;21.91;42.17;95161.69;10491861;28;3008;-49
2023/11/20 21:08:09;;;;;;;;;;;;;;;21.81;42.11;95154.72;10498925;28;2950;-51
2023/11/20 21:13:09;;;;;;;;;;;;;;;21.74;42.15;95157.00;10497001;28;4609;-54
2023/11/20 21:18:10;;;;;;;;;;;;;;;21.66;42.34;95168.22;10495868;28;2908;-51
2023/11/20 21:23:10;;;;;;;;;;;;;;;21.62;42.44;95161.97;10493826;28;3241;-53
2023/11/20 21:28:10;;;;;;;;;;;;;;;21.62;40.94;95154.06;10489749;28;2855;-54
2023/11/20 21:33:10;;;;;;;;;;;;;;;21.59;41.35;95160.72;10493091;28;2794;-52
2023/11/20 21:38:11;;;;;;;;;;;;;;;21.54;41.23;95158.16;10492602;28;2859;-53
2023/11/20 21:43:13;;;;;;;;;;;;;;;21.49;41.16;95157.50;10498108;28;2821;-52
2023/11/20 21:48:13;;;;;;;;;;;;;;;21.43;40.76;95151.50;10488134;28;2965;-55
2023/11/20 21:53:14;;;;;;;;;;;;;;;21.38;40.64;95153.47;10496659;28;2889;-51
2023/11/20 21:58:16;;;;;;;;;;;;;;;21.36;40.53;95159.03;10494486;28;2832;-53
2023/11/20 22:03:17;;;;;;;;;;;;;;;21.31;40.95;95161.00;10497027;28;2798;-51
2023/11/20 22:08:18;;;;;;;;;;;;;;;21.18;41.67;95145.94;10489124;28;2865;-54
2023/11/20 22:13:18;;;;;;;;;;;;;;;21.12;42.21;95144.47;10490821;28;4692;-52
2023/11/20 22:18:18;;;;;;;;;;;;;;;21.06;41.77;95136.66;10489930;28;2839;-52
2023/11/20 22:23:19;;;;;;;;;;;;;;;21.02;41.84;95148.06;10490101;28;2834;-51
2023/11/20 22:28:19;;;;;;;;;;;;;;;20.95;41.93;95145.00;10498525;27;2896;-52
2023/11/20 22:33:20;;;;;;;;;;;;;;;20.92;42.23;95141.09;10500197;28;2937;-49
2023/11/20 22:38:20;;;;;;;;;;;;;;;20.87;42.17;95148.31;10503541;28;2865;-50
2023/11/20 22:43:20;;;;;;;;;;;;;;;20.82;42.50;95151.81;10506202;28;2848;-50
2023/11/20 22:48:21;;;;;;;;;;;;;;;20.78;42.53;95148.19;10499826;28;2838;-49
2023/11/20 22:53:21;;;;;;;;;;;;;;;20.75;42.50;95161.16;10499457;28;2783;-49
2023/11/20 22:58:21;;;;;;;;;;;;;;;20.72;42.67;95170.41;10499752;28;3399;-51
2023/11/20 23:03:22;;;;;;;;;;;;;;;20.68;42.59;95168.63;10502123;28;2856;-50
2023/11/20 23:08:22;;;;;;;;;;;;;;;20.66;42.58;95168.94;10495127;28;2966;-52
2023/11/20 23:13:22;;;;;;;;;;;;;;;20.62;42.67;95167.94;10493429;28;4589;-52
2023/11/20 23:18:22;;;;;;;;;;;;;;;20.59;42.58;95155.34;10505309;28;2881;-50
2023/11/20 23:23:23;;;;;;;;;;;;;;;20.56;42.31;95166.47;10499421;28;2879;-51
2023/11/20 23:28:25;;;;;;;;;;;;;;;20.56;42.07;95166.47;10507087;28;2784;-54
2023/11/20 23:33:25;;;;;;;;;;;;;;;20.53;42.02;95159.13;10496607;28;2903;-51
2023/11/20 23:38:25;;;;;;;;;;;;;;;20.52;42.04;95160.19;10495450;28;2836;-51
2023/11/20 23:43:26;;;;;;;;;;;;;;;20.49;42.19;95154.72;10502640;28;2821;-51
2023/11/20 23:48:26;;;;;;;;;;;;;;;20.45;42.10;95146.59;10499120;28;2867;-52
2023/11/20 23:53:26;;;;;;;;;;;;;;;20.42;42.09;95152.47;10493629;28;2956;-51
2023/11/20 23:58:26;;;;;;;;;;;;;;;20.43;42.22;95148.75;10497968;28;2893;-52
